sensor_id;sensor_type;location;lat;lon;timestamp;pressure;altitude;pressure_sealevel;temperature
10869;BMP180;62667;48.698;8.762;2022-12-26T00:02:14;95928.00;;;8.60
10869;BMP180;62667;48.698;8.762;2022-12-26T00:04:42;95919.00;;;8.50
10869;BMP180;62667;48.698;8.762;2022-12-26T00:07:11;95923.00;;;8.50
10869;BMP180;62667;48.698;8.762;2022-12-26T00:09:38;95922.00;;;8.50
10869;BMP180;62667;48.698;8.762;2022-12-26T00:12:06;95920.00;;;8.50
10869;BMP180;62667;48.698;8.762;2022-12-26T00:14:33;95923.00;;;8.60
10869;BMP180;62667;48.698;8.762;2022-12-26T00:17:00;95921.00;;;8.50
10869;BMP180;62667;48.698;8.762;2022-12-26T00:19:28;95918.00;;;8.40
10869;BMP180;62667;48.698;8.762;2022-12-26T00:21:55;95920.00;;;8.40
10869;BMP180;62667;48.698;8.762;2022-12-26T00:24:24;95925.00;;;8.50
10869;BMP180;62667;48.698;8.762;2022-12-26T00:26:51;95926.00;;;8.50
10869;BMP180;62667;48.698;8.762;2022-12-26T00:29:19;95916.00;;;8.40
10869;BMP180;62667;48.698;8.762;2022-12-26T00:31:47;95908.00;;;8.40
10869;BMP180;62667;48.698;8.762;2022-12-26T00:34:15;95924.00;;;8.30
10869;BMP180;62667;48.698;8.762;2022-12-26T00:36:43;95923.00;;;8.30
10869;BMP180;62667;48.698;8.762;2022-12-26T00:39:10;95911.00;;;8.40
10869;BMP180;62667;48.698;8.762;2022-12-26T00:41:39;95921.00;;;8.30
10869;BMP180;62667;48.698;8.762;2022-12-26T00:44:06;95910.00;;;8.30
10869;BMP180;62667;48.698;8.762;2022-12-26T00:46:34;95920.00;;;8.30
10869;BMP180;62667;48.698;8.762;2022-12-26T00:49:01;95914.00;;;8.30
10869;BMP180;62667;48.698;8.762;2022-12-26T00:51:29;95928.00;;;8.30
10869;BMP180;62667;48.698;8.762;2022-12-26T00:53:57;95918.00;;;8.20
10869;BMP180;62667;48.698;8.762;2022-12-26T00:56:24;95911.00;;;8.20
10869;BMP180;62667;48.698;8.762;2022-12-26T00:58:53;95919.00;;;8.20
10869;BMP180;62667;48.698;8.762;2022-12-26T01:01:22;95918.00;;;8.20
10869;BMP180;62667;48.698;8.762;2022-12-26T01:03:50;95922.00;;;8.20
10869;BMP180;62667;48.698;8.762;2022-12-26T01:06:17;95921.00;;;8.30
10869;BMP180;62667;48.698;8.762;2022-12-26T01:08:45;95922.00;;;8.20
10869;BMP180;62667;48.698;8.762;2022-12-26T01:11:14;95924.00;;;8.20
10869;BMP180;62667;48.698;8.762;2022-12-26T01:14:03;95925.00;;;8.30
10869;BMP180;62667;48.698;8.762;2022-12-26T01:16:31;95921.00;;;8.20
10869;BMP180;62667;48.698;8.762;2022-12-26T01:18:58;95920.00;;;8.20
10869;BMP180;62667;48.698;8.762;2022-12-26T01:21:26;95919.00;;;8.30
10869;BMP180;62667;48.698;8.762;2022-12-26T01:23:54;95921.00;;;8.10
10869;BMP180;62667;48.698;8.762;2022-12-26T01:26:21;95914.00;;;8.10
10869;BMP180;62667;48.698;8.762;2022-12-26T01:28:50;95922.00;;;8.10
10869;BMP180;62667;48.698;8.762;2022-12-26T01:31:21;95920.00;;;8.20
10869;BMP180;62667;48.698;8.762;2022-12-26T01:33:48;95916.00;;;8.20
10869;BMP180;62667;48.698;8.762;2022-12-26T01:36:16;95917.00;;;8.10
10869;BMP180;62667;48.698;8.762;2022-12-26T01:38:44;95922.00;;;8.10
10869;BMP180;62667;48.698;8.762;2022-12-26T01:41:12;95946.00;;;8.20
10869;BMP180;62667;48.698;8.762;2022-12-26T01:43:54;95930.00;;;8.30
10869;BMP180;62667;48.698;8.762;2022-12-26T01:46:28;95931.00;;;8.30
10869;BMP180;62667;48.698;8.762;2022-12-26T01:48:59;95930.00;;;8.40
10869;BMP180;62667;48.698;8.762;2022-12-26T01:51:30;95939.00;;;8.50
10869;BMP180;62667;48.698;8.762;2022-12-26T01:54:01;95939.00;;;8.20
10869;BMP180;62667;48.698;8.762;2022-12-26T01:56:32;95923.00;;;8.20
10869;BMP180;62667;48.698;8.762;2022-12-26T01:59:04;95936.00;;;8.00
10869;BMP180;62667;48.698;8.762;2022-12-26T02:01:35;95925.00;;;8.10
10869;BMP180;62667;48.698;8.762;2022-12-26T02:04:07;95924.00;;;8.10
10869;BMP180;62667;48.698;8.762;2022-12-26T02:06:53;95923.00;;;8.10
10869;BMP180;62667;48.698;8.762;2022-12-26T02:09:21;95924.00;;;8.10
10869;BMP180;62667;48.698;8.762;2022-12-26T02:11:52;95920.00;;;8.00
10869;BMP180;62667;48.698;8.762;2022-12-26T02:14:20;95922.00;;;8.00
10869;BMP180;62667;48.698;8.762;2022-12-26T02:16:49;95911.00;;;8.10
10869;BMP180;62667;48.698;8.762;2022-12-26T02:19:26;95933.00;;;8.30
10869;BMP180;62667;48.698;8.762;2022-12-26T02:22:11;95951.00;;;8.30
10869;BMP180;62667;48.698;8.762;2022-12-26T02:25:15;95952.00;;;8.10
10869;BMP180;62667;48.698;8.762;2022-12-26T02:28:12;95940.00;;;8.10
10869;BMP180;62667;48.698;8.762;2022-12-26T02:30:52;95956.00;;;8.10
10869;BMP180;62667;48.698;8.762;2022-12-26T02:33:38;95958.00;;;8.20
10869;BMP180;62667;48.698;8.762;2022-12-26T02:36:30;95944.00;;;8.20
10869;BMP180;62667;48.698;8.762;2022-12-26T02:39:08;95953.00;;;8.20
10869;BMP180;62667;48.698;8.762;2022-12-26T02:41:47;95945.00;;;8.10
10869;BMP180;62667;48.698;8.762;2022-12-26T02:44:21;95955.00;;;8.20
10869;BMP180;62667;48.698;8.762;2022-12-26T02:47:13;95950.00;;;8.20
10869;BMP180;62667;48.698;8.762;2022-12-26T02:49:59;95946.00;;;8.20
10869;BMP180;62667;48.698;8.762;2022-12-26T02:52:54;95946.00;;;8.20
10869;BMP180;62667;48.698;8.762;2022-12-26T02:55:44;95964.00;;;8.20
10869;BMP180;62667;48.698;8.762;2022-12-26T02:58:35;95966.00;;;8.10
10869;BMP180;62667;48.698;8.762;2022-12-26T03:01:26;95976.00;;;8.10
10869;BMP180;62667;48.698;8.762;2022-12-26T03:04:17;95963.00;;;8.10
10869;BMP180;62667;48.698;8.762;2022-12-26T03:07:08;95951.00;;;8.00
10869;BMP180;62667;48.698;8.762;2022-12-26T03:09:57;95955.00;;;8.00
10869;BMP180;62667;48.698;8.762;2022-12-26T03:12:49;95947.00;;;8.00
10869;BMP180;62667;48.698;8.762;2022-12-26T03:15:40;95945.00;;;8.20
10869;BMP180;62667;48.698;8.762;2022-12-26T03:18:24;95927.00;;;8.20
10869;BMP180;62667;48.698;8.762;2022-12-26T03:20:55;95928.00;;;8.10
10869;BMP180;62667;48.698;8.762;2022-12-26T03:23:23;95931.00;;;8.20
10869;BMP180;62667;48.698;8.762;2022-12-26T03:25:53;95932.00;;;8.20
10869;BMP180;62667;48.698;8.762;2022-12-26T03:28:40;95933.00;;;8.10
10869;BMP180;62667;48.698;8.762;2022-12-26T03:31:10;95924.00;;;8.10
10869;BMP180;62667;48.698;8.762;2022-12-26T03:33:38;95920.00;;;8.00
10869;BMP180;62667;48.698;8.762;2022-12-26T03:36:34;95923.00;;;8.00
10869;BMP180;62667;48.698;8.762;2022-12-26T03:39:12;95925.00;;;7.90
10869;BMP180;62667;48.698;8.762;2022-12-26T03:41:48;95914.00;;;8.00
10869;BMP180;62667;48.698;8.762;2022-12-26T03:44:40;95911.00;;;8.00
10869;BMP180;62667;48.698;8.762;2022-12-26T03:47:32;95907.00;;;8.00
10869;BMP180;62667;48.698;8.762;2022-12-26T03:50:27;95902.00;;;8.00
10869;BMP180;62667;48.698;8.762;2022-12-26T03:53:20;95916.00;;;8.00
10869;BMP180;62667;48.698;8.762;2022-12-26T03:56:09;95914.00;;;7.90
10869;BMP180;62667;48.698;8.762;2022-12-26T03:58:58;95927.00;;;7.90
10869;BMP180;62667;48.698;8.762;2022-12-26T04:01:49;95927.00;;;7.90
10869;BMP180;62667;48.698;8.762;2022-12-26T04:04:32;95922.00;;;7.80
10869;BMP180;62667;48.698;8.762;2022-12-26T04:07:21;95932.00;;;7.80
10869;BMP180;62667;48.698;8.762;2022-12-26T04:10:13;95946.00;;;7.90
10869;BMP180;62667;48.698;8.762;2022-12-26T04:13:01;95940.00;;;7.90
10869;BMP180;62667;48.698;8.762;2022-12-26T04:15:50;95934.00;;;8.00
10869;BMP180;62667;48.698;8.762;2022-12-26T04:18:44;95919.00;;;8.00
10869;BMP180;62667;48.698;8.762;2022-12-26T04:21:34;95929.00;;;8.00
10869;BMP180;62667;48.698;8.762;2022-12-26T04:24:25;95931.00;;;8.00
10869;BMP180;62667;48.698;8.762;2022-12-26T04:27:16;95931.00;;;8.00
10869;BMP180;62667;48.698;8.762;2022-12-26T04:30:02;95927.00;;;8.10
10869;BMP180;62667;48.698;8.762;2022-12-26T04:32:48;95937.00;;;8.10
10869;BMP180;62667;48.698;8.762;2022-12-26T04:35:36;95935.00;;;8.10
10869;BMP180;62667;48.698;8.762;2022-12-26T04:38:28;95938.00;;;8.00
10869;BMP180;62667;48.698;8.762;2022-12-26T04:41:14;95935.00;;;8.00
10869;BMP180;62667;48.698;8.762;2022-12-26T04:44:03;95925.00;;;8.00
10869;BMP180;62667;48.698;8.762;2022-12-26T04:46:36;95938.00;;;8.10
10869;BMP180;62667;48.698;8.762;2022-12-26T04:49:07;95932.00;;;8.10
10869;BMP180;62667;48.698;8.762;2022-12-26T04:51:53;95929.00;;;8.10
10869;BMP180;62667;48.698;8.762;2022-12-26T04:54:21;95933.00;;;8.10
10869;BMP180;62667;48.698;8.762;2022-12-26T04:56:48;95931.00;;;8.10
10869;BMP180;62667;48.698;8.762;2022-12-26T04:59:18;95944.00;;;8.10
10869;BMP180;62667;48.698;8.762;2022-12-26T05:01:45;95931.00;;;8.10
10869;BMP180;62667;48.698;8.762;2022-12-26T05:04:30;95914.00;;;8.00
10869;BMP180;62667;48.698;8.762;2022-12-26T05:07:18;95909.00;;;8.10
10869;BMP180;62667;48.698;8.762;2022-12-26T05:10:06;95918.00;;;8.30
10869;BMP180;62667;48.698;8.762;2022-12-26T05:12:34;95921.00;;;8.20
10869;BMP180;62667;48.698;8.762;2022-12-26T05:15:03;95934.00;;;8.10
10869;BMP180;62667;48.698;8.762;2022-12-26T05:17:31;95941.00;;;8.10
10869;BMP180;62667;48.698;8.762;2022-12-26T05:20:16;95955.00;;;8.10
10869;BMP180;62667;48.698;8.762;2022-12-26T05:23:14;95952.00;;;8.00
10869;BMP180;62667;48.698;8.762;2022-12-26T05:26:00;95944.00;;;8.00
10869;BMP180;62667;48.698;8.762;2022-12-26T05:28:48;95944.00;;;7.80
10869;BMP180;62667;48.698;8.762;2022-12-26T05:31:19;95941.00;;;7.80
10869;BMP180;62667;48.698;8.762;2022-12-26T05:33:46;95947.00;;;7.80
10869;BMP180;62667;48.698;8.762;2022-12-26T05:36:35;95951.00;;;8.10
10869;BMP180;62667;48.698;8.762;2022-12-26T05:39:03;95959.00;;;8.20
10869;BMP180;62667;48.698;8.762;2022-12-26T05:41:31;95972.00;;;8.10
10869;BMP180;62667;48.698;8.762;2022-12-26T05:43:58;95959.00;;;8.10
10869;BMP180;62667;48.698;8.762;2022-12-26T05:46:27;95965.00;;;8.10
10869;BMP180;62667;48.698;8.762;2022-12-26T05:48:55;95950.00;;;8.00
10869;BMP180;62667;48.698;8.762;2022-12-26T05:51:23;95957.00;;;7.90
10869;BMP180;62667;48.698;8.762;2022-12-26T05:53:50;95976.00;;;8.00
10869;BMP180;62667;48.698;8.762;2022-12-26T05:56:18;95960.00;;;8.00
10869;BMP180;62667;48.698;8.762;2022-12-26T05:58:52;95959.00;;;8.00
10869;BMP180;62667;48.698;8.762;2022-12-26T06:01:20;95933.00;;;8.00
10869;BMP180;62667;48.698;8.762;2022-12-26T06:03:50;95926.00;;;7.90
10869;BMP180;62667;48.698;8.762;2022-12-26T06:06:19;95929.00;;;7.80
10869;BMP180;62667;48.698;8.762;2022-12-26T06:08:48;95927.00;;;7.80
10869;BMP180;62667;48.698;8.762;2022-12-26T06:11:16;95938.00;;;7.90
10869;BMP180;62667;48.698;8.762;2022-12-26T06:13:44;95939.00;;;7.90
10869;BMP180;62667;48.698;8.762;2022-12-26T06:16:14;95941.00;;;8.00
10869;BMP180;62667;48.698;8.762;2022-12-26T06:18:41;95923.00;;;8.00
10869;BMP180;62667;48.698;8.762;2022-12-26T06:21:12;95937.00;;;8.00
10869;BMP180;62667;48.698;8.762;2022-12-26T06:23:40;95933.00;;;8.00
10869;BMP180;62667;48.698;8.762;2022-12-26T06:26:07;95923.00;;;8.10
10869;BMP180;62667;48.698;8.762;2022-12-26T06:28:38;95920.00;;;8.20
10869;BMP180;62667;48.698;8.762;2022-12-26T06:31:08;95922.00;;;8.20
10869;BMP180;62667;48.698;8.762;2022-12-26T06:33:36;95932.00;;;8.30
10869;BMP180;62667;48.698;8.762;2022-12-26T06:36:05;95929.00;;;8.30
10869;BMP180;62667;48.698;8.762;2022-12-26T06:38:35;95926.00;;;8.30
10869;BMP180;62667;48.698;8.762;2022-12-26T06:41:04;95926.00;;;8.30
10869;BMP180;62667;48.698;8.762;2022-12-26T06:43:32;95927.00;;;8.30
10869;BMP180;62667;48.698;8.762;2022-12-26T06:46:01;95929.00;;;8.20
10869;BMP180;62667;48.698;8.762;2022-12-26T06:48:29;95925.00;;;8.40
10869;BMP180;62667;48.698;8.762;2022-12-26T06:50:56;95930.00;;;8.50
10869;BMP180;62667;48.698;8.762;2022-12-26T06:53:24;95924.00;;;8.50
10869;BMP180;62667;48.698;8.762;2022-12-26T06:55:53;95931.00;;;8.70
10869;BMP180;62667;48.698;8.762;2022-12-26T06:58:20;95935.00;;;8.60
10869;BMP180;62667;48.698;8.762;2022-12-26T07:00:47;95935.00;;;8.70
10869;BMP180;62667;48.698;8.762;2022-12-26T07:03:15;95939.00;;;8.80
10869;BMP180;62667;48.698;8.762;2022-12-26T07:05:42;95949.00;;;8.80
10869;BMP180;62667;48.698;8.762;2022-12-26T07:08:10;95943.00;;;8.80
10869;BMP180;62667;48.698;8.762;2022-12-26T07:10:37;95932.00;;;8.90
10869;BMP180;62667;48.698;8.762;2022-12-26T07:13:06;95944.00;;;8.90
10869;BMP180;62667;48.698;8.762;2022-12-26T07:15:33;95931.00;;;8.90
10869;BMP180;62667;48.698;8.762;2022-12-26T07:18:01;95945.00;;;8.90
10869;BMP180;62667;48.698;8.762;2022-12-26T07:20:28;95950.00;;;8.90
10869;BMP180;62667;48.698;8.762;2022-12-26T07:22:55;95956.00;;;9.00
10869;BMP180;62667;48.698;8.762;2022-12-26T07:25:23;95946.00;;;8.90
10869;BMP180;62667;48.698;8.762;2022-12-26T07:27:52;95948.00;;;8.80
10869;BMP180;62667;48.698;8.762;2022-12-26T07:30:21;95936.00;;;8.90
10869;BMP180;62667;48.698;8.762;2022-12-26T07:32:48;95955.00;;;8.90
10869;BMP180;62667;48.698;8.762;2022-12-26T07:35:16;95960.00;;;8.90
10869;BMP180;62667;48.698;8.762;2022-12-26T07:37:43;95947.00;;;9.00
10869;BMP180;62667;48.698;8.762;2022-12-26T07:40:11;95939.00;;;9.00
10869;BMP180;62667;48.698;8.762;2022-12-26T07:42:39;95942.00;;;9.10
10869;BMP180;62667;48.698;8.762;2022-12-26T07:45:07;95947.00;;;9.10
10869;BMP180;62667;48.698;8.762;2022-12-26T07:47:36;95954.00;;;9.00
10869;BMP180;62667;48.698;8.762;2022-12-26T07:50:04;95965.00;;;9.00
10869;BMP180;62667;48.698;8.762;2022-12-26T07:52:32;95959.00;;;9.00
10869;BMP180;62667;48.698;8.762;2022-12-26T07:54:59;95958.00;;;9.10
10869;BMP180;62667;48.698;8.762;2022-12-26T07:57:26;95955.00;;;9.10
10869;BMP180;62667;48.698;8.762;2022-12-26T07:59:54;95957.00;;;9.20
10869;BMP180;62667;48.698;8.762;2022-12-26T08:02:21;95960.00;;;9.20
10869;BMP180;62667;48.698;8.762;2022-12-26T08:04:50;95966.00;;;9.30
10869;BMP180;62667;48.698;8.762;2022-12-26T08:07:17;95965.00;;;9.30
10869;BMP180;62667;48.698;8.762;2022-12-26T08:09:45;95961.00;;;9.50
10869;BMP180;62667;48.698;8.762;2022-12-26T08:12:12;95951.00;;;9.50
10869;BMP180;62667;48.698;8.762;2022-12-26T08:14:40;95957.00;;;9.50
10869;BMP180;62667;48.698;8.762;2022-12-26T08:17:07;95967.00;;;9.60
10869;BMP180;62667;48.698;8.762;2022-12-26T08:19:35;95970.00;;;9.50
10869;BMP180;62667;48.698;8.762;2022-12-26T08:22:04;95993.00;;;9.50
10869;BMP180;62667;48.698;8.762;2022-12-26T08:24:31;96000.00;;;9.60
10869;BMP180;62667;48.698;8.762;2022-12-26T08:26:59;95990.00;;;9.50
10869;BMP180;62667;48.698;8.762;2022-12-26T08:29:26;96003.00;;;9.50
10869;BMP180;62667;48.698;8.762;2022-12-26T08:31:54;96015.00;;;9.50
10869;BMP180;62667;48.698;8.762;2022-12-26T08:34:21;96021.00;;;9.40
10869;BMP180;62667;48.698;8.762;2022-12-26T08:36:50;96032.00;;;9.30
10869;BMP180;62667;48.698;8.762;2022-12-26T08:39:19;96039.00;;;9.30
10869;BMP180;62667;48.698;8.762;2022-12-26T08:41:46;96041.00;;;9.20
10869;BMP180;62667;48.698;8.762;2022-12-26T08:44:13;96050.00;;;9.10
10869;BMP180;62667;48.698;8.762;2022-12-26T08:46:43;96049.00;;;9.00
10869;BMP180;62667;48.698;8.762;2022-12-26T08:49:10;96061.00;;;9.10
10869;BMP180;62667;48.698;8.762;2022-12-26T08:51:38;96067.00;;;9.00
10869;BMP180;62667;48.698;8.762;2022-12-26T08:54:05;96076.00;;;8.90
10869;BMP180;62667;48.698;8.762;2022-12-26T08:56:34;96069.00;;;8.90
10869;BMP180;62667;48.698;8.762;2022-12-26T08:59:02;96068.00;;;8.90
10869;BMP180;62667;48.698;8.762;2022-12-26T09:01:30;96074.00;;;9.00
10869;BMP180;62667;48.698;8.762;2022-12-26T09:03:59;96064.00;;;9.10
10869;BMP180;62667;48.698;8.762;2022-12-26T09:06:27;96074.00;;;9.10
10869;BMP180;62667;48.698;8.762;2022-12-26T09:08:55;96071.00;;;9.10
10869;BMP180;62667;48.698;8.762;2022-12-26T09:11:24;96074.00;;;9.30
10869;BMP180;62667;48.698;8.762;2022-12-26T09:13:54;96050.00;;;9.40
10869;BMP180;62667;48.698;8.762;2022-12-26T09:16:23;96057.00;;;9.60
10869;BMP180;62667;48.698;8.762;2022-12-26T09:18:54;96051.00;;;9.80
10869;BMP180;62667;48.698;8.762;2022-12-26T09:21:22;96058.00;;;9.90
10869;BMP180;62667;48.698;8.762;2022-12-26T09:23:54;96065.00;;;9.90
10869;BMP180;62667;48.698;8.762;2022-12-26T09:26:22;96065.00;;;9.80
10869;BMP180;62667;48.698;8.762;2022-12-26T09:28:50;96086.00;;;9.60
10869;BMP180;62667;48.698;8.762;2022-12-26T09:31:20;96099.00;;;9.40
10869;BMP180;62667;48.698;8.762;2022-12-26T09:33:48;96106.00;;;9.30
10869;BMP180;62667;48.698;8.762;2022-12-26T09:36:18;96119.00;;;9.30
10869;BMP180;62667;48.698;8.762;2022-12-26T09:38:47;96132.00;;;9.20
10869;BMP180;62667;48.698;8.762;2022-12-26T09:41:32;96142.00;;;9.20
10869;BMP180;62667;48.698;8.762;2022-12-26T09:44:06;96152.00;;;9.00
10869;BMP180;62667;48.698;8.762;2022-12-26T09:46:43;96139.00;;;8.80
10869;BMP180;62667;48.698;8.762;2022-12-26T09:49:16;96151.00;;;8.80
10869;BMP180;62667;48.698;8.762;2022-12-26T09:51:50;96164.00;;;8.80
10869;BMP180;62667;48.698;8.762;2022-12-26T09:54:23;96158.00;;;8.70
10869;BMP180;62667;48.698;8.762;2022-12-26T09:56:52;96174.00;;;8.90
10869;BMP180;62667;48.698;8.762;2022-12-26T09:59:21;96160.00;;;8.90
10869;BMP180;62667;48.698;8.762;2022-12-26T10:01:51;96159.00;;;9.00
10869;BMP180;62667;48.698;8.762;2022-12-26T10:04:22;96155.00;;;9.00
10869;BMP180;62667;48.698;8.762;2022-12-26T10:06:58;96167.00;;;9.10
10869;BMP180;62667;48.698;8.762;2022-12-26T10:09:41;96169.00;;;9.10
10869;BMP180;62667;48.698;8.762;2022-12-26T10:15:10;96163.00;;;9.10
10869;BMP180;62667;48.698;8.762;2022-12-26T10:17:46;96183.00;;;9.20
10869;BMP180;62667;48.698;8.762;2022-12-26T10:20:23;96184.00;;;9.20
10869;BMP180;62667;48.698;8.762;2022-12-26T10:25:49;96190.00;;;9.20
10869;BMP180;62667;48.698;8.762;2022-12-26T10:28:25;96183.00;;;9.10
10869;BMP180;62667;48.698;8.762;2022-12-26T10:30:56;96179.00;;;9.20
10869;BMP180;62667;48.698;8.762;2022-12-26T10:33:32;96171.00;;;9.10
10869;BMP180;62667;48.698;8.762;2022-12-26T10:36:01;96172.00;;;9.30
10869;BMP180;62667;48.698;8.762;2022-12-26T10:38:32;96182.00;;;9.30
10869;BMP180;62667;48.698;8.762;2022-12-26T10:41:04;96190.00;;;9.40
10869;BMP180;62667;48.698;8.762;2022-12-26T10:43:37;96180.00;;;9.30
10869;BMP180;62667;48.698;8.762;2022-12-26T10:46:28;96183.00;;;9.20
10869;BMP180;62667;48.698;8.762;2022-12-26T10:49:00;96203.00;;;9.30
10869;BMP180;62667;48.698;8.762;2022-12-26T10:51:27;96194.00;;;9.30
10869;BMP180;62667;48.698;8.762;2022-12-26T10:53:55;96185.00;;;9.10
10869;BMP180;62667;48.698;8.762;2022-12-26T10:56:24;96185.00;;;9.10
10869;BMP180;62667;48.698;8.762;2022-12-26T10:58:59;96183.00;;;9.10
10869;BMP180;62667;48.698;8.762;2022-12-26T11:01:33;96182.00;;;9.10
10869;BMP180;62667;48.698;8.762;2022-12-26T11:04:04;96183.00;;;9.10
10869;BMP180;62667;48.698;8.762;2022-12-26T11:06:36;96181.00;;;9.20
10869;BMP180;62667;48.698;8.762;2022-12-26T11:09:04;96170.00;;;9.20
10869;BMP180;62667;48.698;8.762;2022-12-26T11:11:34;96160.00;;;9.20
10869;BMP180;62667;48.698;8.762;2022-12-26T11:14:34;96141.00;;;9.40
10869;BMP180;62667;48.698;8.762;2022-12-26T11:17:07;96130.00;;;9.20
10869;BMP180;62667;48.698;8.762;2022-12-26T11:19:38;96130.00;;;9.20
10869;BMP180;62667;48.698;8.762;2022-12-26T11:22:24;96152.00;;;9.30
10869;BMP180;62667;48.698;8.762;2022-12-26T11:25:15;96165.00;;;9.20
10869;BMP180;62667;48.698;8.762;2022-12-26T11:27:45;96167.00;;;8.80
10869;BMP180;62667;48.698;8.762;2022-12-26T11:30:26;96175.00;;;8.80
10869;BMP180;62667;48.698;8.762;2022-12-26T11:33:06;96178.00;;;8.80
10869;BMP180;62667;48.698;8.762;2022-12-26T11:35:46;96189.00;;;9.00
10869;BMP180;62667;48.698;8.762;2022-12-26T11:38:16;96183.00;;;8.90
10869;BMP180;62667;48.698;8.762;2022-12-26T11:41:01;96161.00;;;8.70
10869;BMP180;62667;48.698;8.762;2022-12-26T11:43:47;96141.00;;;8.60
10869;BMP180;62667;48.698;8.762;2022-12-26T11:46:15;96161.00;;;8.60
10869;BMP180;62667;48.698;8.762;2022-12-26T11:48:47;96136.00;;;8.60
10869;BMP180;62667;48.698;8.762;2022-12-26T11:51:32;96120.00;;;8.90
10869;BMP180;62667;48.698;8.762;2022-12-26T11:54:25;96118.00;;;8.80
10869;BMP180;62667;48.698;8.762;2022-12-26T11:57:16;96126.00;;;8.60
10869;BMP180;62667;48.698;8.762;2022-12-26T11:59:45;96130.00;;;8.60
10869;BMP180;62667;48.698;8.762;2022-12-26T12:02:26;96132.00;;;8.60
10869;BMP180;62667;48.698;8.762;2022-12-26T12:04:58;96139.00;;;8.80
10869;BMP180;62667;48.698;8.762;2022-12-26T12:07:51;96148.00;;;8.90
10869;BMP180;62667;48.698;8.762;2022-12-26T12:10:39;96157.00;;;8.60
10869;BMP180;62667;48.698;8.762;2022-12-26T12:13:19;96155.00;;;8.90
10869;BMP180;62667;48.698;8.762;2022-12-26T12:15:51;96143.00;;;8.80
10869;BMP180;62667;48.698;8.762;2022-12-26T12:18:33;96136.00;;;8.60
10869;BMP180;62667;48.698;8.762;2022-12-26T12:21:09;96134.00;;;8.70
10869;BMP180;62667;48.698;8.762;2022-12-26T12:23:56;96129.00;;;8.80
10869;BMP180;62667;48.698;8.762;2022-12-26T12:26:33;96141.00;;;9.10
10869;BMP180;62667;48.698;8.762;2022-12-26T12:29:19;96135.00;;;8.90
10869;BMP180;62667;48.698;8.762;2022-12-26T12:32:03;96118.00;;;8.80
10869;BMP180;62667;48.698;8.762;2022-12-26T12:34:44;96122.00;;;9.00
10869;BMP180;62667;48.698;8.762;2022-12-26T12:37:27;96118.00;;;9.00
10869;BMP180;62667;48.698;8.762;2022-12-26T12:40:12;96122.00;;;8.60
10869;BMP180;62667;48.698;8.762;2022-12-26T12:42:48;96108.00;;;8.70
10869;BMP180;62667;48.698;8.762;2022-12-26T12:45:23;96113.00;;;8.80
10869;BMP180;62667;48.698;8.762;2022-12-26T12:48:10;96113.00;;;8.70
10869;BMP180;62667;48.698;8.762;2022-12-26T12:50:46;96122.00;;;8.70
10869;BMP180;62667;48.698;8.762;2022-12-26T12:53:23;96117.00;;;8.80
10869;BMP180;62667;48.698;8.762;2022-12-26T12:56:10;96114.00;;;8.70
10869;BMP180;62667;48.698;8.762;2022-12-26T12:58:49;96106.00;;;8.70
10869;BMP180;62667;48.698;8.762;2022-12-26T13:01:23;96110.00;;;8.80
10869;BMP180;62667;48.698;8.762;2022-12-26T13:03:56;96113.00;;;9.00
10869;BMP180;62667;48.698;8.762;2022-12-26T13:06:30;96121.00;;;9.00
10869;BMP180;62667;48.698;8.762;2022-12-26T13:09:05;96116.00;;;8.80
10869;BMP180;62667;48.698;8.762;2022-12-26T13:11:38;96122.00;;;8.80
10869;BMP180;62667;48.698;8.762;2022-12-26T13:14:12;96108.00;;;8.80
10869;BMP180;62667;48.698;8.762;2022-12-26T13:16:44;96098.00;;;8.70
10869;BMP180;62667;48.698;8.762;2022-12-26T13:19:17;96115.00;;;8.80
10869;BMP180;62667;48.698;8.762;2022-12-26T13:21:47;96094.00;;;8.80
10869;BMP180;62667;48.698;8.762;2022-12-26T13:24:20;96086.00;;;8.90
10869;BMP180;62667;48.698;8.762;2022-12-26T13:27:00;96093.00;;;8.80
10869;BMP180;62667;48.698;8.762;2022-12-26T13:29:36;96078.00;;;9.20
10869;BMP180;62667;48.698;8.762;2022-12-26T13:32:12;96090.00;;;9.10
10869;BMP180;62667;48.698;8.762;2022-12-26T13:34:42;96084.00;;;8.90
10869;BMP180;62667;48.698;8.762;2022-12-26T13:40:15;96083.00;;;9.00
10869;BMP180;62667;48.698;8.762;2022-12-26T13:42:48;96072.00;;;8.90
10869;BMP180;62667;48.698;8.762;2022-12-26T13:45:57;96075.00;;;8.90
10869;BMP180;62667;48.698;8.762;2022-12-26T13:48:46;96073.00;;;9.10
10869;BMP180;62667;48.698;8.762;2022-12-26T13:51:49;96070.00;;;9.10
10869;BMP180;62667;48.698;8.762;2022-12-26T13:54:17;96070.00;;;9.00
10869;BMP180;62667;48.698;8.762;2022-12-26T14:03:20;96087.00;;;8.80
10869;BMP180;62667;48.698;8.762;2022-12-26T14:09:10;96073.00;;;8.90
10869;BMP180;62667;48.698;8.762;2022-12-26T14:11:59;96090.00;;;8.80
10869;BMP180;62667;48.698;8.762;2022-12-26T14:14:37;96097.00;;;8.80
10869;BMP180;62667;48.698;8.762;2022-12-26T14:17:13;96085.00;;;8.90
10869;BMP180;62667;48.698;8.762;2022-12-26T14:19:48;96084.00;;;8.90
10869;BMP180;62667;48.698;8.762;2022-12-26T14:22:26;96071.00;;;8.90
10869;BMP180;62667;48.698;8.762;2022-12-26T14:25:06;96073.00;;;8.80
10869;BMP180;62667;48.698;8.762;2022-12-26T14:27:41;96075.00;;;9.00
10869;BMP180;62667;48.698;8.762;2022-12-26T14:30:19;96094.00;;;8.80
10869;BMP180;62667;48.698;8.762;2022-12-26T14:33:00;96076.00;;;8.80
10869;BMP180;62667;48.698;8.762;2022-12-26T14:35:33;96093.00;;;8.80
10869;BMP180;62667;48.698;8.762;2022-12-26T14:38:16;96070.00;;;8.90
10869;BMP180;62667;48.698;8.762;2022-12-26T14:40:58;96059.00;;;8.80
10869;BMP180;62667;48.698;8.762;2022-12-26T14:43:32;96059.00;;;8.80
10869;BMP180;62667;48.698;8.762;2022-12-26T14:46:01;96052.00;;;8.80
10869;BMP180;62667;48.698;8.762;2022-12-26T14:48:52;96058.00;;;8.80
10869;BMP180;62667;48.698;8.762;2022-12-26T14:51:37;96055.00;;;8.80
10869;BMP180;62667;48.698;8.762;2022-12-26T14:54:31;96063.00;;;8.70
10869;BMP180;62667;48.698;8.762;2022-12-26T14:57:00;96066.00;;;8.70
10869;BMP180;62667;48.698;8.762;2022-12-26T14:59:30;96064.00;;;8.80
10869;BMP180;62667;48.698;8.762;2022-12-26T15:02:08;96067.00;;;8.70
10869;BMP180;62667;48.698;8.762;2022-12-26T15:04:58;96057.00;;;8.70
10869;BMP180;62667;48.698;8.762;2022-12-26T15:16:43;96069.00;;;8.60
10869;BMP180;62667;48.698;8.762;2022-12-26T15:22:59;96080.00;;;8.90
10869;BMP180;62667;48.698;8.762;2022-12-26T15:25:56;96086.00;;;8.70
10869;BMP180;62667;48.698;8.762;2022-12-26T15:28:46;96077.00;;;8.60
10869;BMP180;62667;48.698;8.762;2022-12-26T15:31:37;96085.00;;;8.60
10869;BMP180;62667;48.698;8.762;2022-12-26T15:37:04;96087.00;;;8.60
10869;BMP180;62667;48.698;8.762;2022-12-26T15:39:41;96083.00;;;8.60
10869;BMP180;62667;48.698;8.762;2022-12-26T15:42:22;96076.00;;;8.70